首页
METAR-TAF:

METAR-TAF

机场 :

連科蘭國際機場

連科蘭, 阿塞拜疆

纬度: 38-44-47N, 经度: 048-49-04E, 海拔: 9米

当前天气观测

该预报发布于16分钟前的16:00 UTC
风速2节,风向多变
温度 6°C
湿度 100%
气压 1020 hPa
能見度: 3800
多云层高于10000英尺
轻雾

METAR: UBBL 121600Z VRB02KT 3800 BR BKN100 06/06 Q1020 R33/CLRD// NOSIG RMK MT OBSC

时间: 20:16 (16:16 UTC)

预报

该预报发布于5小时和13分钟前的11:03 UTC
预报有效从12日的 12点(UTC)到 13日的 12点(UTC)
风速4节,风向多变
能見度: 8000
阴天层高于1800英尺
短暂存在
从 12日的 12点(UTC)到 12日的 24点(UTC)
能見度: 5000
散云层高于1000英尺
阴天层高于1500英尺
小雨
短暂存在
从 13日的 00点(UTC)到 13日的 12点(UTC)
风速8节,风向北转西北
能見度: 3000
多云层高于600英尺
阴天层高于1200英尺
小雨, 轻雾

TAF: UBBL 121103Z 1212/1312 VRB04KT 8000 OVC018 TX09/1212Z TN05/1302Z TEMPO 1212/1224 5000 -RA SCT010 OVC015 TEMPO 1300/1312 33008KT 3000 -RA BR BKN006 OVC012

超过4000个机场的气象观测和天气预报(METAR&TAF报告)。

可查询的气象台以黄色和红色小点在地图上表示。

将鼠标移到小点上方,可查看气象台名称。

然后点击查看天气观测和预报。

如需切换地图:点击带黑十字的绿色按钮放大地图;点击带横线的绿色按钮缩小地图;或者点击绿色箭头查看邻近地区的地图。


METAR-TAF: